Time;durP1;ratioP1;P1;durP2;ratioP2;P2;SDS_P1;SDS_P2;PMS_P1;PMS_P2;Temp;Humidity;BMP_temperature;BMP_pressure;BME280_temperature;BME280_humidity;BME280_pressure;Samples;Min_cycle;Max_cycle;Signal;HPM_P1;HPM_P2
2022/01/26 00:07:59;;;;;;;26.65;14.90;;;2.00;99.90;;;;;;1917140;75;21067;-89
2022/01/26 00:10:50;;;;;;;25.75;16.60;;;2.00;99.90;;;;;;1919445;73;21196;-89
2022/01/26 00:14:11;;;;;;;28.23;15.45;;;1.90;99.90;;;;;;1939283;73;21079;-90
2022/01/26 00:17:11;;;;;;;27.00;16.23;;;1.90;99.90;;;;;;1939411;73;21090;-89
2022/01/26 00:20:11;;;;;;;24.75;16.20;;;1.90;99.90;;;;;;1917566;75;21055;-90
2022/01/26 00:23:04;;;;;;;26.65;17.67;;;1.90;99.90;;;;;;1917859;75;21202;-89
2022/01/26 00:26:06;;;;;;;25.43;16.60;;;1.90;99.90;;;;;;1917639;74;21095;-90
2022/01/26 00:29:10;;;;;;;25.62;16.42;;;1.90;99.90;;;;;;1918703;73;21102;-90
2022/01/26 00:38:37;;;;;;;25.15;15.48;;;1.70;99.90;;;;;;1936760;73;21136;-89
2022/01/26 00:41:34;;;;;;;23.80;16.17;;;1.70;99.90;;;;;;1940788;73;21088;-89
2022/01/26 00:44:32;;;;;;;28.00;16.90;;;1.70;99.90;;;;;;1932229;73;21087;-89
2022/01/26 00:47:19;;;;;;;25.08;16.67;;;1.60;99.90;;;;;;1917759;75;21082;-90
2022/01/26 00:50:11;;;;;;;26.20;16.45;;;1.60;99.90;;;;;;1917738;75;21051;-90
2022/01/26 00:53:04;;;;;;;23.57;15.88;;;1.50;99.90;;;;;;1873517;76;21140;-89
2022/01/26 00:55:56;;;;;;;24.52;16.07;;;1.60;99.90;;;;;;1935203;73;21394;-90
2022/01/26 00:58:49;;;;;;;27.15;16.42;;;1.60;99.90;;;;;;1935344;73;21055;-89
2022/01/26 01:01:40;;;;;;;25.50;16.80;;;1.50;99.90;;;;;;1921689;73;21101;-89
2022/01/26 01:04:33;;;;;;;26.37;17.07;;;1.50;99.90;;;;;;1928534;73;21051;-90
2022/01/26 01:07:24;;;;;;;27.85;17.37;;;1.40;99.90;;;;;;1927851;73;21141;-89
2022/01/26 01:10:19;;;;;;;28.12;18.17;;;1.40;99.90;;;;;;1917193;75;21159;-90
2022/01/26 01:13:15;;;;;;;26.45;16.57;;;1.40;99.90;;;;;;1933201;73;21177;-89
2022/01/26 01:16:03;;;;;;;26.68;16.40;;;1.50;99.90;;;;;;1941532;73;21071;-91
2022/01/26 01:19:02;;;;;;;29.32;17.40;;;1.60;99.90;;;;;;1925867;73;21171;-91
2022/01/26 01:22:19;;;;;;;26.02;17.40;;;1.60;99.90;;;;;;1917265;75;21796;-90
2022/01/26 01:31:40;;;;;;;26.20;17.17;;;1.60;99.90;;;;;;1917122;75;21066;-91
2022/01/26 01:34:25;;;;;;;26.75;16.42;;;1.50;99.90;;;;;;1917076;75;21176;-90
2022/01/26 01:37:17;;;;;;;24.63;16.02;;;1.60;99.90;;;;;;1871087;76;21062;-90
2022/01/26 01:40:11;;;;;;;23.12;16.20;;;1.60;99.90;;;;;;1927329;73;21042;-89
2022/01/26 01:43:02;;;;;;;24.98;16.37;;;1.50;99.90;;;;;;1928283;73;21062;-88
2022/01/26 01:45:55;;;;;;;25.15;16.25;;;1.50;99.90;;;;;;1917100;75;21055;-90
2022/01/26 01:48:47;;;;;;;27.70;17.65;;;1.50;99.90;;;;;;1917005;75;21117;-89
2022/01/26 01:54:23;;;;;;;29.50;17.90;;;1.40;99.90;;;;;;1934765;72;22154;-91
2022/01/26 01:57:20;;;;;;;26.42;16.37;;;1.40;99.90;;;;;;1901270;75;21107;-90
2022/01/26 02:00:10;;;;;;;27.58;18.30;;;1.40;99.90;;;;;;1910402;75;21055;-90
2022/01/26 02:03:02;;;;;;;28.77;16.23;;;1.30;99.90;;;;;;1877602;75;21035;-89
2022/01/26 02:05:54;;;;;;;31.62;17.80;;;1.30;99.90;;;;;;1892481;75;21184;-90
2022/01/26 02:11:26;;;;;;;29.25;17.25;;;1.20;99.90;;;;;;1964775;72;22699;-91
2022/01/26 02:14:26;;;;;;;24.98;16.25;;;1.10;99.90;;;;;;1923926;73;21067;-90
2022/01/26 02:17:29;;;;;;;27.62;17.25;;;1.20;99.90;;;;;;1925628;73;21060;-90
2022/01/26 02:20:42;;;;;;;25.97;16.25;;;1.20;99.90;;;;;;1917651;75;21088;-91
2022/01/26 02:52:11;;;;;;;25.55;15.60;;;1.00;99.90;;;;;;1940757;73;21160;-90
2022/01/26 02:58:36;;;;;;;26.48;15.80;;;0.90;99.90;;;;;;1917649;75;21074;-89
2022/01/26 03:04:21;;;;;;;28.00;15.78;;;0.90;99.90;;;;;;1917597;75;21063;-90
2022/01/26 03:07:13;;;;;;;27.65;16.40;;;0.80;99.90;;;;;;1917817;75;21161;-90
2022/01/26 03:10:05;;;;;;;25.72;15.88;;;0.70;99.90;;;;;;1919019;74;21128;-89
2022/01/26 03:12:58;;;;;;;26.17;15.28;;;0.60;99.90;;;;;;1921500;74;21133;-89
2022/01/26 03:15:52;;;;;;;25.77;15.53;;;0.60;99.90;;;;;;1904880;74;21084;-90
2022/01/26 03:19:04;;;;;;;22.95;15.72;;;0.60;99.90;;;;;;1927095;74;21121;-90
2022/01/26 03:22:15;;;;;;;27.22;15.70;;;0.60;99.90;;;;;;1926857;74;21109;-89
2022/01/26 03:28:17;;;;;;;24.00;15.88;;;0.60;99.90;;;;;;1915966;74;21121;-90
2022/01/26 03:31:37;;;;;;;22.93;15.35;;;0.60;99.90;;;;;;1902519;75;21155;-89
2022/01/26 03:34:10;;;;;;;25.57;15.68;;;0.70;99.90;;;;;;1918910;74;21110;-89
2022/01/26 03:37:06;;;;;;;23.95;15.00;;;0.70;99.90;;;;;;1826734;77;21217;-89
2022/01/26 03:39:55;;;;;;;30.30;16.32;;;0.60;99.90;;;;;;1822434;77;21074;-91
2022/01/26 03:42:46;;;;;;;25.82;15.60;;;0.50;99.90;;;;;;1915660;74;21133;-90
2022/01/26 03:45:38;;;;;;;23.40;15.90;;;0.50;99.90;;;;;;1914855;74;21153;-90
2022/01/26 03:48:29;;;;;;;26.82;16.10;;;0.40;99.90;;;;;;1922697;74;21117;-90
2022/01/26 03:51:20;;;;;;;27.20;16.73;;;0.50;99.90;;;;;;1903667;74;21056;-90
2022/01/26 03:54:14;;;;;;;25.75;15.88;;;0.50;99.90;;;;;;1913608;74;21130;-91
2022/01/26 03:57:06;;;;;;;27.77;16.17;;;0.50;99.90;;;;;;1915681;74;21132;-91
2022/01/26 03:59:57;;;;;;;25.20;16.00;;;0.50;99.90;;;;;;1905776;74;21149;-91
2022/01/26 04:02:49;;;;;;;26.77;16.02;;;0.50;99.90;;;;;;1905015;74;21180;-91
2022/01/26 04:05:40;;;;;;;25.85;16.37;;;0.50;99.90;;;;;;1935755;74;21103;-90
2022/01/26 04:08:34;;;;;;;28.27;16.20;;;0.60;99.90;;;;;;1902551;75;21576;-89
2022/01/26 04:11:37;;;;;;;24.85;15.30;;;0.70;99.90;;;;;;1927056;74;21075;-90
2022/01/26 04:14:32;;;;;;;25.45;15.35;;;0.70;99.90;;;;;;1939177;73;21090;-90
2022/01/26 04:17:22;;;;;;;27.48;15.72;;;0.70;99.90;;;;;;1846618;77;21138;-90
2022/01/26 04:20:13;;;;;;;26.73;15.48;;;0.60;99.90;;;;;;1876514;76;21122;-91
2022/01/26 04:23:11;;;;;;;22.80;15.13;;;0.60;99.90;;;;;;1838015;78;21120;-90
2022/01/26 04:25:59;;;;;;;24.55;15.18;;;0.70;99.90;;;;;;1824129;78;21193;-90
2022/01/26 04:28:56;;;;;;;22.45;14.83;;;0.70;99.90;;;;;;1874147;75;21236;-90
2022/01/26 04:31:45;;;;;;;22.55;14.65;;;0.60;99.90;;;;;;1867703;77;21059;-90
2022/01/26 04:34:36;;;;;;;24.70;14.55;;;0.60;99.90;;;;;;1837230;78;21104;-89
2022/01/26 04:40:12;;;;;;;23.20;14.30;;;0.70;99.90;;;;;;1971820;72;22257;-91
2022/01/26 04:45:44;;;;;;;23.12;13.70;;;0.70;99.90;;;;;;1955232;72;22178;-91
2022/01/26 04:48:35;;;;;;;23.42;13.88;;;0.70;99.90;;;;;;1895872;74;21108;-91
2022/01/26 04:51:28;;;;;;;24.72;15.25;;;0.70;99.90;;;;;;1895792;75;21091;-90
2022/01/26 04:54:20;;;;;;;23.73;15.23;;;0.70;99.90;;;;;;1898670;75;21062;-90
2022/01/26 04:57:12;;;;;;;22.35;14.20;;;0.80;99.90;;;;;;1901566;75;21146;-90
2022/01/26 05:00:06;;;;;;;30.80;15.30;;;0.80;99.90;;;;;;1906681;75;21122;-90
2022/01/26 05:02:58;;;;;;;22.60;14.95;;;0.80;99.90;;;;;;1906637;75;21194;-90
2022/01/26 05:05:50;;;;;;;24.57;14.95;;;0.70;99.90;;;;;;1907129;75;21040;-90
2022/01/26 05:08:42;;;;;;;23.60;14.45;;;0.60;99.90;;;;;;1903689;75;21117;-91
2022/01/26 05:11:36;;;;;;;24.45;14.33;;;0.60;99.90;;;;;;1898392;75;21094;-90
2022/01/26 05:14:26;;;;;;;25.45;14.90;;;0.60;99.90;;;;;;1915666;75;21047;-90
2022/01/26 05:17:20;;;;;;;21.62;15.03;;;0.60;99.90;;;;;;1891905;75;21118;-89
2022/01/26 05:20:13;;;;;;;24.87;14.43;;;0.60;99.90;;;;;;1884726;76;21054;-91
2022/01/26 05:23:05;;;;;;;24.47;15.45;;;0.60;99.90;;;;;;1884898;75;21146;-91
2022/01/26 05:25:56;;;;;;;22.17;14.58;;;0.60;99.90;;;;;;1895155;75;21098;-90
2022/01/26 05:28:47;;;;;;;22.25;14.33;;;0.60;99.90;;;;;;1895629;75;21048;-91
2022/01/26 05:31:39;;;;;;;23.15;14.87;;;0.60;99.90;;;;;;1896323;75;21132;-90
2022/01/26 05:34:31;;;;;;;22.35;15.28;;;0.60;99.90;;;;;;1901141;75;21047;-90
2022/01/26 05:37:22;;;;;;;24.10;15.00;;;0.50;99.90;;;;;;1917972;75;21103;-90
2022/01/26 05:40:15;;;;;;;25.35;15.90;;;0.50;99.90;;;;;;1895828;75;21111;-90
2022/01/26 05:43:06;;;;;;;22.98;15.08;;;0.50;99.90;;;;;;1916769;75;21541;-90
2022/01/26 05:46:03;;;;;;;22.98;15.55;;;0.50;99.90;;;;;;1914059;74;21086;-90
2022/01/26 05:48:52;;;;;;;24.10;15.43;;;0.40;99.90;;;;;;1920288;74;21062;-90
2022/01/26 05:54:24;;;;;;;21.82;15.20;;;0.40;99.90;;;;;;1975518;72;22281;-90
2022/01/26 05:57:16;;;;;;;26.87;16.25;;;0.30;99.90;;;;;;1917715;75;21163;-91
2022/01/26 06:00:09;;;;;;;23.70;15.20;;;0.30;99.90;;;;;;1917771;75;21055;-90
2022/01/26 06:03:07;;;;;;;25.97;16.02;;;0.30;99.90;;;;;;1918445;75;21134;-90
2022/01/26 06:05:59;;;;;;;23.83;15.70;;;0.30;99.90;;;;;;1917687;75;21116;-90
2022/01/26 06:08:50;;;;;;;22.93;15.03;;;0.20;99.90;;;;;;1881042;76;21095;-90
2022/01/26 06:11:42;;;;;;;25.68;16.05;;;0.20;99.90;;;;;;1917774;75;21153;-91
2022/01/26 06:17:14;;;;;;;23.85;15.80;;;0.10;99.90;;;;;;1951218;72;22228;-90
2022/01/26 06:20:08;;;;;;;23.92;15.63;;;0.10;99.90;;;;;;1832073;77;21117;-90
2022/01/26 06:23:00;;;;;;;24.87;15.85;;;0.20;99.90;;;;;;1898300;75;21051;-90
2022/01/26 06:25:51;;;;;;;24.80;16.23;;;0.20;99.90;;;;;;1895332;75;21156;-90
2022/01/26 06:28:42;;;;;;;26.25;16.60;;;0.20;99.90;;;;;;1893116;75;21149;-90
2022/01/26 06:31:40;;;;;;;26.30;16.07;;;0.30;99.90;;;;;;1904257;75;21168;-91
2022/01/26 06:34:31;;;;;;;27.00;15.88;;;0.20;99.90;;;;;;1890391;75;21071;-91
2022/01/26 06:37:23;;;;;;;27.15;16.37;;;0.20;99.90;;;;;;1884681;76;21067;-91
2022/01/26 06:40:47;;;;;;;21.37;14.55;;;0.20;99.90;;;;;;1907707;75;21160;-91
2022/01/26 06:43:47;;;;;;;24.63;15.08;;;0.20;99.90;;;;;;1915917;75;21091;-90
2022/01/26 06:46:44;;;;;;;24.37;14.90;;;0.20;99.90;;;;;;1910383;75;21108;-90
2022/01/26 06:49:29;;;;;;;25.40;14.58;;;0.20;99.90;;;;;;1905921;75;21044;-90
2022/01/26 06:52:20;;;;;;;21.80;14.47;;;0.20;99.90;;;;;;1901979;75;21088;-90
2022/01/26 06:55:12;;;;;;;22.10;14.07;;;0.10;99.90;;;;;;1896094;75;21059;-92
2022/01/26 06:58:04;;;;;;;22.02;14.03;;;0.10;99.90;;;;;;1896020;75;21580;-90
2022/01/26 07:00:57;;;;;;;25.85;14.98;;;0.10;99.90;;;;;;1885910;75;21128;-90
2022/01/26 07:03:48;;;;;;;27.52;15.03;;;0.10;99.90;;;;;;1917769;75;21122;-90
2022/01/26 07:06:40;;;;;;;24.07;15.32;;;0.10;99.90;;;;;;1906106;75;21122;-91
2022/01/26 07:09:32;;;;;;;23.50;14.65;;;0.10;99.90;;;;;;1907203;75;21114;-90
2022/01/26 07:12:23;;;;;;;27.20;16.00;;;0.10;99.90;;;;;;1906580;75;21051;-91
2022/01/26 07:21:47;;;;;;;24.87;14.55;;;0.10;99.90;;;;;;1884858;76;21120;-91
2022/01/26 07:24:38;;;;;;;25.23;15.90;;;0.00;99.90;;;;;;1917695;75;21075;-90
2022/01/26 07:27:30;;;;;;;28.57;15.60;;;0.00;99.90;;;;;;1885151;75;21120;-91
2022/01/26 07:30:22;;;;;;;28.50;15.40;;;0.00;99.90;;;;;;1911109;75;21036;-93
2022/01/26 07:33:13;;;;;;;27.90;15.88;;;0.00;99.90;;;;;;1895153;75;21129;-90
2022/01/26 07:36:06;;;;;;;25.10;15.60;;;0.00;99.90;;;;;;1916975;75;21052;-94
2022/01/26 07:39:06;;;;;;;27.22;15.78;;;0.10;99.90;;;;;;1884206;75;21047;-89
2022/01/26 07:41:51;;;;;;;24.32;15.38;;;0.10;99.90;;;;;;1883930;76;21075;-92
2022/01/26 07:44:42;;;;;;;27.02;16.17;;;0.20;99.90;;;;;;1906436;75;21118;-90
2022/01/26 07:47:36;;;;;;;28.25;15.00;;;0.10;99.90;;;;;;1900869;75;21087;-91
2022/01/26 07:50:28;;;;;;;23.60;15.83;;;0.10;99.90;;;;;;1896112;75;21094;-90
2022/01/26 07:53:20;;;;;;;26.62;16.17;;;0.20;99.90;;;;;;1894306;75;21125;-90
2022/01/26 07:56:11;;;;;;;25.02;15.28;;;0.20;99.90;;;;;;1893354;75;21059;-89
2022/01/26 07:59:03;;;;;;;27.70;16.35;;;0.10;99.90;;;;;;1901700;75;21087;-90
2022/01/26 08:01:54;;;;;;;28.80;16.30;;;0.10;99.90;;;;;;1896958;75;21150;-90
2022/01/26 08:04:47;;;;;;;23.90;14.80;;;0.10;99.90;;;;;;1886874;75;21125;-89
2022/01/26 08:07:38;;;;;;;27.93;16.57;;;0.20;99.90;;;;;;1886703;75;21164;-90
2022/01/26 08:10:30;;;;;;;24.18;17.17;;;0.20;99.90;;;;;;1897018;75;21139;-90
2022/01/26 08:13:22;;;;;;;25.72;16.20;;;0.30;99.90;;;;;;1899494;75;21099;-89
2022/01/26 08:16:16;;;;;;;28.10;18.65;;;0.30;99.90;;;;;;1885608;75;21095;-90
2022/01/26 08:19:08;;;;;;;29.18;18.40;;;0.30;99.90;;;;;;1910755;75;21118;-90
2022/01/26 08:22:02;;;;;;;29.72;18.27;;;0.30;99.90;;;;;;1917022;75;21128;-90
2022/01/26 08:24:58;;;;;;;26.82;17.37;;;0.40;99.90;;;;;;1917027;75;21174;-90
2022/01/26 08:27:59;;;;;;;26.62;17.05;;;0.50;99.90;;;;;;1904252;75;21052;-90
2022/01/26 08:30:51;;;;;;;27.15;18.25;;;0.60;99.90;;;;;;1915292;75;21092;-90
2022/01/26 08:33:44;;;;;;;27.82;18.07;;;0.70;99.90;;;;;;1897943;75;21095;-90
2022/01/26 08:39:53;;;;;;;31.27;19.07;;;0.90;99.90;;;;;;1891930;74;21155;-90
2022/01/26 08:42:45;;;;;;;30.40;18.95;;;1.00;99.90;;;;;;1883831;76;21588;-90
2022/01/26 08:45:38;;;;;;;30.30;19.42;;;1.10;99.90;;;;;;1896770;75;21117;-90
2022/01/26 08:48:32;;;;;;;35.75;20.35;;;1.10;99.90;;;;;;1886761;75;21055;-90
2022/01/26 08:51:26;;;;;;;31.68;20.08;;;1.20;99.90;;;;;;1906190;75;21128;-91
2022/01/26 08:54:22;;;;;;;31.42;20.25;;;1.30;99.90;;;;;;1884241;76;21242;-90
2022/01/26 08:57:19;;;;;;;26.73;18.23;;;1.20;99.90;;;;;;1883824;76;21172;-90
2022/01/26 09:00:17;;;;;;;31.05;18.50;;;1.20;99.90;;;;;;1895980;75;21134;-91
2022/01/26 09:03:10;;;;;;;30.70;18.12;;;1.30;99.90;;;;;;1894934;75;21131;-90
2022/01/26 09:06:04;;;;;;;29.32;17.20;;;1.40;99.90;;;;;;1893173;75;21049;-90
2022/01/26 09:09:02;;;;;;;25.73;16.83;;;1.50;99.90;;;;;;1884259;76;21059;-90
2022/01/26 09:11:58;;;;;;;26.57;16.10;;;1.60;99.90;;;;;;1901327;75;21147;-92
2022/01/26 09:14:53;;;;;;;27.10;16.60;;;1.70;99.90;;;;;;1897046;75;21172;-92
2022/01/26 09:17:50;;;;;;;23.45;14.68;;;1.70;99.90;;;;;;1869977;74;21184;-90
2022/01/26 09:20:42;;;;;;;22.85;15.05;;;1.70;99.90;;;;;;1928367;74;21193;-90
2022/01/26 09:23:37;;;;;;;21.90;14.83;;;1.80;99.90;;;;;;1921834;74;21113;-90
2022/01/26 09:26:31;;;;;;;24.90;14.68;;;1.80;99.90;;;;;;1915632;74;21116;-89
2022/01/26 09:29:24;;;;;;;24.15;15.28;;;1.90;99.90;;;;;;1912188;74;21157;-90
2022/01/26 09:32:20;;;;;;;21.48;14.55;;;2.00;99.90;;;;;;1932849;74;21110;-90
2022/01/26 09:35:15;;;;;;;22.37;14.40;;;2.00;99.90;;;;;;1912795;74;21133;-92
2022/01/26 09:38:12;;;;;;;23.22;14.63;;;2.10;99.90;;;;;;1932804;74;21120;-90
2022/01/26 09:41:07;;;;;;;25.05;14.90;;;2.10;99.90;;;;;;1903391;74;21083;-91
2022/01/26 09:44:03;;;;;;;21.00;13.83;;;2.20;99.90;;;;;;1886971;75;21197;-90
2022/01/26 09:47:01;;;;;;;20.45;14.10;;;2.20;99.90;;;;;;1895296;74;21050;-90
2022/01/26 09:53:04;;;;;;;24.80;14.13;;;2.40;99.90;;;;;;2010285;71;22225;-90
2022/01/26 09:55:56;;;;;;;23.12;14.68;;;2.40;99.90;;;;;;1953463;73;21108;-92
2022/01/26 09:58:48;;;;;;;23.75;14.80;;;2.50;99.90;;;;;;1974004;72;21031;-90
2022/01/26 10:01:44;;;;;;;22.65;14.78;;;2.50;99.90;;;;;;2043991;69;21038;-90
2022/01/26 10:04:40;;;;;;;23.65;14.98;;;2.60;99.90;;;;;;2044677;69;21598;-91
2022/01/26 10:07:46;;;;;;;22.98;14.60;;;2.60;99.90;;;;;;2043613;69;21061;-91
2022/01/26 10:20:15;;;;;;;22.95;15.72;;;2.90;99.90;;;;;;2022657;70;21092;-89
2022/01/26 10:23:09;;;;;;;22.13;14.23;;;3.00;99.90;;;;;;2034142;70;21144;-91
2022/01/26 10:26:06;;;;;;;21.48;15.00;;;3.00;99.90;;;;;;2034245;70;21072;-90
2022/01/26 10:31:44;;;;;;;26.17;15.58;;;3.10;99.90;;;;;;1958417;72;20095;-90
2022/01/26 10:37:21;;;;;;;23.00;15.58;;;3.30;99.90;;;;;;1943323;72;22240;-90
2022/01/26 10:40:18;;;;;;;25.75;15.45;;;3.40;99.90;;;;;;1906955;75;21110;-90
2022/01/26 10:43:12;;;;;;;23.57;15.08;;;3.50;99.90;;;;;;1906749;75;21559;-89
2022/01/26 10:46:06;;;;;;;23.92;14.75;;;3.50;99.90;;;;;;1903876;75;21093;-90
2022/01/26 10:49:13;;;;;;;20.80;14.98;;;3.60;99.90;;;;;;1902618;75;21154;-90
2022/01/26 10:52:03;;;;;;;22.77;15.03;;;3.60;99.90;;;;;;1897172;75;21116;-89
2022/01/26 10:54:59;;;;;;;24.43;16.12;;;3.70;99.90;;;;;;1910299;75;21047;-90
2022/01/26 10:57:51;;;;;;;24.30;15.15;;;3.80;99.90;;;;;;1887597;75;21095;-89
2022/01/26 11:00:43;;;;;;;21.68;14.53;;;3.90;99.90;;;;;;1917672;75;21670;-90
2022/01/26 11:03:39;;;;;;;21.33;15.30;;;3.90;99.90;;;;;;1917246;75;21047;-89
2022/01/26 11:06:31;;;;;;;23.25;15.78;;;4.00;99.90;;;;;;1917570;75;21121;-90
2022/01/26 11:09:27;;;;;;;24.05;15.23;;;4.10;99.90;;;;;;1895845;75;21039;-90
2022/01/26 11:15:11;;;;;;;20.45;14.90;;;4.30;99.90;;;;;;1955264;72;22228;-92
2022/01/26 11:18:17;;;;;;;22.65;15.08;;;4.40;99.90;;;;;;1909025;74;21098;-89
2022/01/26 11:21:04;;;;;;;21.05;14.55;;;4.50;99.90;;;;;;1894476;75;21101;-90
2022/01/26 11:24:08;;;;;;;21.93;15.05;;;4.50;99.90;;;;;;1895642;75;21170;-90
2022/01/26 11:27:07;;;;;;;19.95;13.50;;;4.50;99.90;;;;;;1895677;75;21162;-90
2022/01/26 11:29:59;;;;;;;20.72;13.50;;;4.60;99.90;;;;;;1917564;75;21150;-89
2022/01/26 11:32:58;;;;;;;19.75;13.80;;;4.70;99.90;;;;;;1884297;76;21720;-89
2022/01/26 11:35:53;;;;;;;22.40;13.50;;;4.70;99.90;;;;;;1896354;75;21128;-90
2022/01/26 11:42:10;;;;;;;19.02;13.48;;;4.70;99.90;;;;;;1895422;75;21212;-89
2022/01/26 11:42:25;;;;;;;26.48;13.28;;;4.70;99.90;;;;;;1910808;75;21107;-90
2022/01/26 11:45:16;;;;;;;22.22;13.50;;;4.80;99.90;;;;;;1906844;75;21114;-90
2022/01/26 11:48:15;;;;;;;20.00;13.32;;;4.80;99.90;;;;;;1889110;75;21176;-90
2022/01/26 11:51:08;;;;;;;21.75;13.30;;;4.90;99.90;;;;;;1895664;75;21068;-89
2022/01/26 11:56:40;;;;;;;17.35;12.25;;;5.10;99.90;;;;;;1944630;72;22170;-90
2022/01/26 11:59:37;;;;;;;18.50;12.07;;;5.20;99.90;;;;;;1884093;75;21101;-90
2022/01/26 12:02:43;;;;;;;20.35;13.10;;;5.20;99.90;;;;;;1905289;75;21202;-90
2022/01/26 12:05:29;;;;;;;21.77;13.32;;;5.30;99.90;;;;;;1911244;75;21640;-90
2022/01/26 12:08:31;;;;;;;15.40;11.00;;;5.30;99.90;;;;;;1873313;76;21143;-90
2022/01/26 12:11:24;;;;;;;14.07;10.40;;;5.60;99.90;;;;;;1873279;76;21179;-90
2022/01/26 12:14:19;;;;;;;14.33;10.85;;;5.80;99.90;;;;;;1904850;74;21154;-90
2022/01/26 12:17:13;;;;;;;15.55;10.85;;;5.70;99.90;;;;;;1908036;74;21098;-91
2022/01/26 12:32:02;;;;;;;13.32;9.58;;;5.80;99.90;;;;;;1892551;75;21146;-90
2022/01/26 12:36:15;;;;;;;16.77;10.45;;;6.00;99.90;;;;;;1888478;75;21173;-90
2022/01/26 12:39:03;;;;;;;14.80;10.68;;;6.10;99.90;;;;;;1882651;75;21071;-90
2022/01/26 12:41:54;;;;;;;16.42;11.60;;;6.10;99.90;;;;;;1884840;75;21059;-89
2022/01/26 12:44:46;;;;;;;17.92;11.12;;;6.10;99.90;;;;;;1882180;75;21177;-89
2022/01/26 12:47:38;;;;;;;15.53;11.75;;;6.10;99.90;;;;;;1902045;74;21491;-89
2022/01/26 12:50:31;;;;;;;14.60;10.78;;;6.20;99.90;;;;;;1886659;75;21103;-89
2022/01/26 12:53:32;;;;;;;13.38;10.10;;;6.20;99.90;;;;;;1909700;74;21216;-90
2022/01/26 12:56:26;;;;;;;17.50;10.55;;;6.30;99.90;;;;;;1914657;74;21072;-89
2022/01/26 12:59:20;;;;;;;17.05;11.22;;;6.40;99.90;;;;;;1913190;74;21051;-89
2022/01/26 13:02:13;;;;;;;19.37;9.78;;;6.40;99.90;;;;;;1908482;74;21117;-89
2022/01/26 13:05:08;;;;;;;15.18;10.58;;;6.50;99.90;;;;;;1901851;74;21127;-90
2022/01/26 13:08:06;;;;;;;14.70;9.50;;;6.60;99.90;;;;;;1915820;74;21188;-89
2022/01/26 13:11:05;;;;;;;14.73;10.10;;;6.70;99.90;;;;;;1915086;74;21184;-89
2022/01/26 13:14:12;;;;;;;16.23;9.30;;;6.80;99.90;;;;;;1931606;74;21083;-90
2022/01/26 13:17:11;;;;;;;17.15;10.35;;;6.80;99.90;;;;;;1892478;75;21097;-89
2022/01/26 13:20:14;;;;;;;14.47;10.08;;;6.90;99.90;;;;;;1881087;76;21176;-91
2022/01/26 13:23:09;;;;;;;19.70;10.72;;;6.80;99.90;;;;;;1881199;76;21067;-90
2022/01/26 13:26:08;;;;;;;17.77;11.18;;;6.80;99.90;;;;;;1925305;74;21125;-91
2022/01/26 13:29:07;;;;;;;17.85;11.68;;;6.90;99.90;;;;;;1891498;75;21548;-91
2022/01/26 13:35:40;;;;;;;15.28;8.43;;;7.00;99.90;;;;;;1892587;74;21064;-89
2022/01/26 13:38:45;;;;;;;12.75;8.15;;;7.10;99.90;;;;;;1910317;74;21079;-89
2022/01/26 13:41:40;;;;;;;13.38;7.92;;;7.10;99.90;;;;;;1907459;74;21149;-89
2022/01/26 13:44:50;;;;;;;12.43;8.20;;;7.20;99.90;;;;;;1878125;75;21176;-91
2022/01/26 13:50:57;;;;;;;11.93;8.63;;;7.20;99.90;;;;;;1897253;75;21039;-90
2022/01/26 13:53:55;;;;;;;13.22;8.23;;;7.20;99.90;;;;;;1913549;75;21105;-89
2022/01/26 13:56:57;;;;;;;16.65;8.25;;;7.20;99.90;;;;;;1897148;75;21146;-89
2022/01/26 14:02:38;;;;;;;13.43;7.90;;;7.30;99.90;;;;;;1952979;72;22204;-90
2022/01/26 14:05:34;;;;;;;12.40;8.30;;;7.40;99.90;;;;;;1936516;73;21521;-91
2022/01/26 14:08:29;;;;;;;14.78;8.60;;;7.40;99.90;;;;;;1917885;75;21164;-89
2022/01/26 14:11:26;;;;;;;12.82;8.20;;;7.40;99.90;;;;;;1917691;75;21200;-91
2022/01/26 14:14:25;;;;;;;13.53;8.10;;;7.40;99.90;;;;;;1946843;73;21113;-90
2022/01/26 14:17:29;;;;;;;12.10;8.10;;;7.60;99.90;;;;;;1926281;73;21047;-90
2022/01/26 14:20:29;;;;;;;10.85;7.62;;;7.60;99.90;;;;;;1917455;75;21128;-91
2022/01/26 14:23:32;;;;;;;12.70;8.50;;;7.60;99.90;;;;;;1917576;73;21127;-89
2022/01/26 14:26:14;;;;;;;15.58;8.43;;;7.70;99.90;;;;;;1929276;74;21120;-89
2022/01/26 14:29:14;;;;;;;14.13;8.85;;;7.80;99.90;;;;;;1918074;75;21626;-89
2022/01/26 14:35:41;;;;;;;13.95;8.35;;;7.80;99.90;;;;;;1918195;75;21054;-91
2022/01/26 14:51:21;;;;;;;12.07;8.30;;;8.00;99.90;;;;;;1917340;75;21084;-89
2022/01/26 14:54:25;;;;;;;14.83;8.35;;;8.10;99.90;;;;;;1917915;75;21197;-89
2022/01/26 15:00:54;;;;;;;12.88;8.00;;;8.10;99.90;;;;;;1917612;75;21104;-90
2022/01/26 15:10:50;;;;;;;17.40;8.33;;;8.10;99.90;;;;;;1911970;74;21195;-89
2022/01/26 15:20:17;;;;;;;10.03;7.55;;;8.10;99.90;;;;;;1922859;73;21146;-90
2022/01/26 15:33:05;;;;;;;11.20;7.40;;;7.80;99.90;;;;;;1916653;75;21224;-90
2022/01/26 15:45:02;;;;;;;12.90;7.70;;;7.50;99.90;;;;;;1867824;75;21225;-89
2022/01/26 15:51:04;;;;;;;12.65;5.92;;;7.30;99.90;;;;;;1875975;76;21057;-89
2022/01/26 16:06:43;;;;;;;12.88;7.10;;;7.10;99.90;;;;;;1968240;72;22268;-90
2022/01/26 16:12:56;;;;;;;10.25;6.85;;;7.00;99.90;;;;;;1917747;75;21049;-90
2022/01/26 16:35:21;;;;;;;21.80;10.32;;;6.50;99.90;;;;;;1917507;75;21156;-90
2022/01/26 16:38:34;;;;;;;21.50;8.88;;;6.40;99.90;;;;;;1917871;75;21121;-89
2022/01/26 17:11:09;;;;;;;22.90;11.38;;;6.10;99.90;;;;;;1917625;75;21175;-89
2022/01/26 17:21:15;;;;;;;19.30;10.45;;;5.80;99.90;;;;;;1917058;73;21143;-90
2022/01/26 17:55:19;;;;;;;25.95;15.18;;;4.40;99.90;;;;;;1917744;75;21140;-90
2022/01/26 18:04:37;;;;;;;23.75;15.45;;;4.10;99.90;;;;;;1916737;75;21098;-90
2022/01/26 18:13:01;;;;;;;23.75;15.28;;;4.10;99.90;;;;;;1917171;75;21047;-90
2022/01/26 18:14:19;;;;;;;25.00;14.75;;;3.80;99.90;;;;;;1934515;73;21129;-91
2022/01/26 18:16:33;;;;;;;24.10;15.85;;;3.80;99.90;;;;;;1936301;73;21095;-90
2022/01/26 18:26:17;;;;;;;26.00;15.53;;;3.50;99.90;;;;;;1950927;73;21054;-89
2022/01/26 19:05:59;;;;;;;31.55;17.27;;;2.80;99.90;;;;;;2034596;69;22086;-91
2022/01/26 19:08:50;;;;;;;28.85;17.07;;;2.50;99.90;;;;;;1985844;72;21145;-90
2022/01/26 19:11:41;;;;;;;30.48;17.45;;;2.50;99.90;;;;;;1967220;72;21096;-90
2022/01/26 19:14:36;;;;;;;26.02;16.40;;;2.50;99.90;;;;;;1956514;72;21050;-90
2022/01/26 19:17:33;;;;;;;26.17;16.23;;;2.40;99.90;;;;;;1985322;72;21065;-90
2022/01/26 19:20:36;;;;;;;30.50;17.00;;;2.40;99.90;;;;;;1985439;72;21083;-90
2022/01/26 19:23:34;;;;;;;28.27;18.07;;;2.30;99.90;;;;;;1985484;72;21050;-89
2022/01/26 19:26:26;;;;;;;26.70;17.37;;;2.20;99.90;;;;;;1967733;72;21042;-92
2022/01/26 19:29:24;;;;;;;27.40;18.05;;;2.20;99.90;;;;;;1950592;73;21123;-90
2022/01/26 19:32:40;;;;;;;26.97;17.98;;;2.10;99.90;;;;;;1981153;72;21031;-90
2022/01/26 19:45:10;;;;;;;29.63;18.55;;;2.00;99.90;;;;;;1971868;71;21068;-90
2022/01/26 19:51:10;;;;;;;31.23;18.32;;;1.90;99.90;;;;;;1985429;72;21031;-90
2022/01/26 19:54:02;;;;;;;30.80;19.20;;;1.80;99.90;;;;;;1967941;72;21095;-90
2022/01/26 19:56:53;;;;;;;29.42;18.82;;;1.70;99.90;;;;;;1985304;72;21039;-90
2022/01/26 19:59:45;;;;;;;30.77;19.02;;;1.60;99.90;;;;;;1985472;72;21037;-90
2022/01/26 20:02:37;;;;;;;29.35;19.92;;;1.60;99.90;;;;;;1984984;71;21075;-91
2022/01/26 20:05:34;;;;;;;34.25;20.32;;;1.60;99.90;;;;;;1983309;71;21089;-89
2022/01/26 20:08:38;;;;;;;33.53;18.95;;;1.50;99.90;;;;;;1967361;72;21058;-90
2022/01/26 20:11:35;;;;;;;27.98;18.85;;;1.50;99.90;;;;;;1959764;73;21080;-90
2022/01/26 20:14:22;;;;;;;34.98;20.52;;;1.50;99.90;;;;;;1970406;72;21057;-90
2022/01/26 20:17:16;;;;;;;30.23;18.77;;;1.40;99.90;;;;;;1946337;73;21096;-89
2022/01/26 20:20:12;;;;;;;31.90;19.10;;;1.30;99.90;;;;;;1956825;73;21162;-90
2022/01/26 20:23:03;;;;;;;33.15;20.35;;;1.30;99.90;;;;;;1912621;75;21368;-90
2022/01/26 20:25:59;;;;;;;37.10;18.82;;;1.20;99.90;;;;;;1967141;72;21062;-92
2022/01/26 20:28:50;;;;;;;33.13;19.65;;;1.20;99.90;;;;;;1949512;72;21041;-90
2022/01/26 20:31:43;;;;;;;33.45;19.67;;;1.20;99.90;;;;;;1958975;72;21086;-90
2022/01/26 20:34:42;;;;;;;30.65;19.15;;;1.10;99.90;;;;;;1955851;73;21090;-90
2022/01/26 20:40:15;;;;;;;32.67;20.15;;;1.10;99.90;;;;;;1940172;72;22326;-90
2022/01/26 20:43:12;;;;;;;30.43;19.40;;;1.00;99.90;;;;;;1837079;77;21086;-90
2022/01/26 20:46:07;;;;;;;30.48;20.02;;;1.00;99.90;;;;;;1892231;75;21144;-90
2022/01/26 20:48:59;;;;;;;32.90;19.87;;;1.00;99.90;;;;;;1891431;75;21147;-91
2022/01/26 20:51:57;;;;;;;32.08;19.48;;;1.00;99.90;;;;;;1894625;75;21101;-90
2022/01/26 20:54:52;;;;;;;31.90;19.52;;;1.00;99.90;;;;;;1873220;76;21614;-90
2022/01/26 20:57:47;;;;;;;30.82;19.75;;;1.00;99.90;;;;;;1896877;75;21111;-90